KESN

Easton / Newnam Field Airport

Easton, Maryland, USA
METAR KESN 231956Z 24008KT 10SM SKC 20/07 A3001
Observed Flight Rules
Oct-23 @ 19:56 UTC (36 minutes ago) Visual Flight Rules
Wind Visibility Clouds
240° at 8 knots 10 miles
  • Clear skies
Temperatures Readings
Current 20°C / 68°F
Dewpoint 7°C / 45°F
Humidity 43%
Altimeter 30.01" Hg
Pressure 1016 hPa
Elevation 22
METAR KESN 231956Z 24008KT 10SM SKC 20/07 A3001
Observed Flight Rules
Oct-23 @ 19:56 UTC
(36 minutes ago)
VFR
Wind Visibility
240° at 8 knots 10 miles
Clouds
  • Clear skies
Temperature Dewpoint
20°C / 68°F 7°C / 45°F
Humidity Altimeter Pressure
43% 30.01" Hg 1016 hPa